createdAt,value
2023-03-01T00:03:19.193Z,500.00
2023-03-01T00:04:19.511Z,500.00
2023-03-01T00:05:20.100Z,500.00
2023-03-01T00:06:19.041Z,500.00
2023-03-01T00:07:20.543Z,500.00
2023-03-01T00:08:21.368Z,500.00
2023-03-01T00:09:20.539Z,516.00
2023-03-01T00:19:59.083Z,500.00
2023-03-01T00:20:58.975Z,500.00
2023-03-01T00:21:58.674Z,500.00
2023-03-01T00:22:58.646Z,500.00
2023-03-01T00:23:58.622Z,500.00
2023-03-01T00:24:58.613Z,524.00
2023-03-01T00:25:58.711Z,544.00
2023-03-01T00:26:58.597Z,562.00
2023-03-01T00:27:58.610Z,514.00
2023-03-01T00:28:58.712Z,506.00
2023-03-01T00:29:58.540Z,517.00
2023-03-01T00:30:58.673Z,545.00
2023-03-01T00:31:58.691Z,540.00
2023-03-01T00:32:58.525Z,540.00
2023-03-01T00:33:58.633Z,538.00
2023-03-01T00:34:58.557Z,500.00
2023-03-01T00:35:58.583Z,500.00
2023-03-01T00:36:58.608Z,513.00
2023-03-01T01:44:21.541Z,500.00
2023-03-01T01:46:21.227Z,500.00
2023-03-01T01:47:21.323Z,500.00
2023-03-01T01:48:21.106Z,500.00
2023-03-01T01:49:21.098Z,500.00
2023-03-01T01:57:23.468Z,500.00
2023-03-01T02:09:23.275Z,500.00
2023-03-01T02:10:23.537Z,500.00
2023-03-01T02:11:23.353Z,500.00
2023-03-01T02:12:23.138Z,500.00
2023-03-01T02:13:23.122Z,500.00
2023-03-01T02:14:23.153Z,536.00
2023-03-01T02:15:23.116Z,567.00
2023-03-01T02:16:23.270Z,559.00
2023-03-01T02:17:23.096Z,599.00
2023-03-01T02:23:19.619Z,500.00
2023-03-01T02:24:23.010Z,500.00
2023-03-01T02:25:23.174Z,500.00
2023-03-01T02:26:22.883Z,500.00
2023-03-01T02:27:22.970Z,500.00
2023-03-01T02:28:22.865Z,500.00
2023-03-01T02:45:57.264Z,500.00
2023-03-01T02:48:16.597Z,500.00
2023-03-01T02:49:16.871Z,500.00
2023-03-01T02:53:57.669Z,500.00
2023-03-01T02:54:58.610Z,500.00
2023-03-01T02:57:17.114Z,500.00
2023-03-01T02:58:16.906Z,500.00
2023-03-01T02:59:17.052Z,500.00
2023-03-01T03:00:16.764Z,500.00
2023-03-01T03:01:16.898Z,500.00
2023-03-01T03:02:16.781Z,501.00
2023-03-01T03:03:16.777Z,525.00
2023-03-01T03:04:16.765Z,597.00
2023-03-01T03:05:16.786Z,646.00
2023-03-01T03:06:16.965Z,739.00
2023-03-01T03:07:16.774Z,838.00
2023-03-01T03:08:16.734Z,958.00
2023-03-01T03:09:16.910Z,1058.00
2023-03-01T03:10:16.695Z,1049.00
2023-03-01T03:11:16.748Z,941.00
2023-03-01T03:12:16.694Z,911.00
2023-03-01T03:13:16.747Z,1010.00
2023-03-01T03:14:16.731Z,1094.00
2023-03-01T03:15:16.729Z,1080.00
2023-03-01T03:16:16.717Z,1042.00
2023-03-01T03:17:16.674Z,1116.00
2023-03-01T03:18:16.671Z,1148.00
2023-03-01T03:19:16.647Z,851.00
2023-03-01T03:20:16.679Z,748.00
2023-03-01T03:23:59.020Z,500.00
2023-03-01T03:24:57.020Z,500.00
2023-03-01T03:25:56.637Z,500.00
2023-03-01T03:26:56.612Z,500.00
2023-03-01T03:27:56.589Z,500.00
2023-03-01T03:28:56.649Z,500.00
2023-03-01T03:29:56.556Z,540.00
2023-03-01T03:30:56.562Z,548.00
2023-03-01T03:31:56.645Z,557.00
2023-03-01T03:32:56.575Z,565.00
2023-03-01T03:33:56.527Z,586.00
2023-03-01T03:34:56.536Z,600.00
2023-03-01T04:45:30.146Z,500.00
2023-03-01T04:46:30.360Z,500.00
2023-03-01T04:47:30.261Z,500.00
2023-03-01T04:48:29.927Z,500.00
2023-03-01T04:49:29.887Z,500.00
2023-03-01T04:50:29.870Z,500.00
2023-03-01T04:51:29.929Z,500.00
2023-03-01T04:52:29.872Z,525.00
2023-03-01T04:53:30.064Z,503.00
2023-03-01T04:54:29.907Z,497.00
2023-03-01T04:55:29.841Z,499.00
2023-03-01T04:56:30.098Z,522.00
2023-03-01T04:57:29.813Z,518.00
2023-03-01T04:58:29.845Z,534.00
2023-03-01T04:59:29.827Z,539.00
2023-03-01T05:00:29.827Z,563.00
2023-03-01T05:01:29.833Z,588.00
2023-03-01T05:02:29.873Z,581.00
2023-03-01T05:03:29.803Z,599.00
2023-03-01T05:04:29.863Z,595.00
2023-03-01T05:05:29.822Z,619.00
2023-03-01T05:06:30.126Z,594.00
2023-03-01T05:07:29.827Z,605.00
2023-03-01T05:08:29.867Z,554.00
2023-03-01T05:09:29.912Z,479.00
2023-03-01T05:10:30.003Z,500.00
2023-03-01T05:11:30.011Z,522.00
2023-03-01T05:12:30.030Z,585.00
2023-03-01T05:13:30.043Z,687.00
2023-03-01T05:14:30.103Z,721.00
2023-03-01T05:15:30.198Z,791.00
2023-03-01T05:16:30.426Z,916.00
2023-03-01T05:17:30.170Z,1005.00
2023-03-01T05:18:30.217Z,946.00
2023-03-01T05:19:30.224Z,716.00
2023-03-01T05:20:30.190Z,658.00
2023-03-01T05:21:30.236Z,651.00
2023-03-01T05:22:30.312Z,583.00
2023-03-01T05:23:30.308Z,509.00
2023-03-01T05:24:30.336Z,503.00
2023-03-01T05:25:30.368Z,502.00
2023-03-01T05:26:30.366Z,507.00
2023-03-01T05:27:30.447Z,511.00
2023-03-01T05:28:30.426Z,514.00
2023-03-01T05:29:30.479Z,468.00
2023-03-01T05:30:30.480Z,532.00
2023-03-01T05:31:30.584Z,629.00
2023-03-01T05:33:30.630Z,436.00
2023-03-01T06:47:30.691Z,500.00
2023-03-01T06:48:31.003Z,500.00
2023-03-01T06:49:30.565Z,500.00
2023-03-01T06:50:30.571Z,500.00
2023-03-01T06:51:31.434Z,500.00
2023-03-01T06:52:30.413Z,477.00
2023-03-01T07:03:50.174Z,657.00
2023-03-01T07:53:15.406Z,500.00
2023-03-01T07:54:15.548Z,500.00
2023-03-01T07:55:15.091Z,500.00
2023-03-01T07:56:30.482Z,500.00
2023-03-01T07:57:14.915Z,500.00
2023-03-01T07:58:15.341Z,500.00
2023-03-01T07:59:14.882Z,500.00
2023-03-01T08:00:14.926Z,500.00
2023-03-01T08:01:15.610Z,500.00
2023-03-01T08:02:14.855Z,618.00
2023-03-01T08:03:14.861Z,1317.00
2023-03-01T08:04:14.834Z,1347.00
2023-03-01T08:05:14.813Z,1462.00
2023-03-01T08:06:14.759Z,1609.00
2023-03-01T08:07:14.781Z,1783.00
2023-03-01T08:08:14.831Z,1516.00
2023-03-01T08:09:14.740Z,1043.00
2023-03-01T08:10:14.769Z,972.00
2023-03-01T08:11:14.761Z,808.00
2023-03-01T08:12:14.715Z,538.00
2023-03-01T08:13:15.196Z,577.00
2023-03-01T08:14:14.802Z,804.00
2023-03-01T08:15:14.724Z,980.00
2023-03-01T08:16:14.793Z,848.00
2023-03-01T08:17:14.760Z,482.00
2023-03-01T08:18:14.830Z,468.00
2023-03-01T08:19:14.798Z,402.00
2023-03-01T08:20:14.820Z,400.00
2023-03-01T08:21:14.830Z,400.00
2023-03-01T08:22:15.028Z,400.00
2023-03-01T08:24:15.012Z,400.00
2023-03-01T08:25:14.951Z,400.00
2023-03-01T08:26:14.955Z,400.00
2023-03-01T08:27:14.999Z,553.00
2023-03-01T08:29:15.137Z,1150.00
2023-03-01T08:30:15.160Z,1199.00
2023-03-01T08:31:15.329Z,1167.00
2023-03-01T08:32:15.642Z,634.00
2023-03-01T08:34:15.320Z,400.00
2023-03-01T08:35:15.700Z,400.00
2023-03-01T08:36:15.448Z,400.00
2023-03-01T08:37:15.438Z,400.00
2023-03-01T08:58:31.187Z,1774.00
2023-03-01T09:04:16.172Z,665.00
2023-03-01T09:29:29.492Z,500.00
2023-03-01T09:42:55.045Z,500.00
2023-03-01T09:43:50.844Z,500.00
2023-03-01T09:47:31.091Z,500.00
2023-03-01T09:49:50.047Z,500.00
2023-03-01T09:51:05.023Z,500.00
2023-03-01T09:51:49.656Z,500.00
2023-03-01T09:52:49.799Z,500.00
2023-03-01T09:53:49.605Z,500.00
2023-03-01T09:54:49.645Z,500.00
2023-03-01T09:55:49.586Z,500.00
2023-03-01T09:56:49.633Z,400.00
2023-03-01T09:58:49.797Z,400.00
2023-03-01T09:59:50.218Z,400.00
2023-03-01T10:00:50.036Z,400.00
2023-03-01T10:01:50.154Z,400.00
2023-03-01T10:02:50.582Z,400.00
2023-03-01T10:03:51.772Z,400.00
2023-03-01T10:04:50.127Z,400.00
2023-03-01T10:06:04.966Z,400.00
2023-03-01T10:06:49.624Z,400.00
2023-03-01T10:14:49.473Z,400.00
2023-03-01T10:15:49.570Z,400.00
2023-03-01T10:16:49.479Z,400.00
2023-03-01T10:17:49.497Z,400.00
2023-03-01T10:18:49.456Z,400.00
2023-03-01T10:19:49.459Z,400.00
2023-03-01T10:20:49.477Z,400.00
2023-03-01T10:25:49.453Z,400.00
2023-03-01T11:03:08.385Z,423.00
2023-03-01T11:15:08.407Z,795.00
2023-03-01T11:21:28.264Z,500.00
2023-03-01T11:22:27.903Z,500.00
2023-03-01T11:23:29.008Z,500.00
2023-03-01T11:25:48.010Z,500.00
2023-03-01T11:26:47.491Z,500.00
2023-03-01T11:27:47.474Z,500.00
2023-03-01T11:28:47.881Z,500.00
2023-03-01T11:29:49.026Z,500.00
2023-03-01T11:30:53.088Z,507.00
2023-03-01T11:31:57.285Z,502.00
2023-03-01T11:32:48.415Z,446.00
2023-03-01T11:33:47.327Z,481.00
2023-03-01T11:34:47.326Z,483.00
2023-03-01T11:39:06.886Z,500.00
2023-03-01T11:41:06.974Z,500.00
2023-03-01T11:42:18.068Z,579.00
2023-03-01T11:49:08.193Z,500.00
2023-03-01T11:50:07.638Z,500.00
2023-03-01T11:51:08.387Z,500.00
2023-03-01T11:53:07.106Z,500.00
2023-03-01T13:23:39.959Z,457.00
2023-03-01T13:33:39.924Z,491.00
2023-03-01T14:13:37.403Z,500.00
2023-03-01T14:22:35.278Z,400.00
2023-03-01T14:23:34.635Z,400.00
2023-03-01T14:24:34.688Z,400.00
2023-03-01T14:25:34.658Z,400.00
2023-03-01T14:26:34.614Z,400.00
2023-03-01T14:27:34.699Z,400.00
2023-03-01T14:28:34.667Z,400.00
2023-03-01T14:29:34.624Z,400.00
2023-03-01T14:30:34.624Z,400.00
2023-03-01T14:31:40.982Z,400.00
2023-03-01T14:52:34.694Z,926.00
2023-03-01T14:53:45.830Z,1249.00
2023-03-01T14:54:35.669Z,1251.00
2023-03-01T14:55:34.704Z,1072.00
2023-03-01T14:56:34.665Z,1027.00
2023-03-01T14:57:34.684Z,1004.00
2023-03-01T14:58:34.855Z,1004.00
2023-03-01T14:59:34.690Z,1242.00
2023-03-01T15:07:34.584Z,950.00
2023-03-01T15:08:34.599Z,971.00
2023-03-01T15:09:34.810Z,605.00
2023-03-01T15:10:34.724Z,633.00
2023-03-01T15:11:35.191Z,545.00
2023-03-01T15:12:34.860Z,538.00
2023-03-01T15:13:34.839Z,524.00
2023-03-01T15:14:34.952Z,601.00
2023-03-01T16:01:54.563Z,942.00
2023-03-01T16:29:54.379Z,2441.00
2023-03-01T16:30:54.407Z,2445.00
2023-03-01T16:31:54.502Z,2459.00
2023-03-01T16:32:54.513Z,2617.00
2023-03-01T16:33:54.537Z,2941.00
2023-03-01T16:34:54.546Z,2862.00
2023-03-01T16:35:54.596Z,3009.00
2023-03-01T17:48:13.947Z,500.00
2023-03-01T17:49:14.107Z,500.00
2023-03-01T17:50:13.907Z,500.00
2023-03-01T18:14:49.839Z,604.00
2023-03-01T19:01:13.145Z,500.00
2023-03-01T19:02:13.186Z,500.00
2023-03-01T19:03:12.931Z,500.00
2023-03-01T19:37:32.866Z,600.00
2023-03-01T19:38:32.875Z,601.00
2023-03-01T19:39:32.852Z,501.00
2023-03-01T19:40:32.832Z,513.00
2023-03-01T19:41:32.859Z,500.00
2023-03-01T19:42:32.849Z,515.00
2023-03-01T19:48:23.791Z,500.00
2023-03-01T19:49:23.594Z,500.00
2023-03-01T19:50:23.390Z,500.00
2023-03-01T20:02:57.432Z,500.00
2023-03-01T20:03:57.355Z,500.00
2023-03-01T20:09:57.107Z,500.00
2023-03-01T20:12:16.721Z,500.00
2023-03-01T20:13:16.668Z,500.00
2023-03-01T20:14:16.604Z,500.00
2023-03-01T20:15:16.580Z,500.00
2023-03-01T20:16:16.611Z,500.00
2023-03-01T20:17:16.565Z,438.00
2023-03-01T20:18:16.572Z,400.00
2023-03-01T20:19:16.543Z,400.00
2023-03-01T20:20:16.554Z,400.00
2023-03-01T20:21:24.794Z,426.00
2023-03-01T20:22:17.906Z,400.00
2023-03-01T20:23:16.548Z,400.00
2023-03-01T20:24:16.535Z,400.00
2023-03-01T20:25:16.566Z,400.00
2023-03-01T20:26:16.595Z,400.00
2023-03-01T20:27:16.507Z,400.00
2023-03-01T20:28:16.491Z,448.00
2023-03-01T20:29:16.485Z,536.00
2023-03-01T20:30:16.493Z,742.00
2023-03-01T20:31:16.518Z,888.00
2023-03-01T20:32:16.579Z,908.00
2023-03-01T20:33:16.476Z,855.00
2023-03-01T20:34:16.478Z,854.00
2023-03-01T20:35:16.433Z,826.00
2023-03-01T20:36:16.467Z,839.00
2023-03-01T20:37:16.446Z,862.00
2023-03-01T20:38:16.481Z,942.00
2023-03-01T20:39:16.581Z,1054.00
2023-03-01T20:40:16.730Z,1250.00
2023-03-01T20:41:16.602Z,1265.00
2023-03-01T20:42:16.625Z,1252.00
2023-03-01T20:43:16.602Z,1039.00
2023-03-01T20:44:16.683Z,942.00
2023-03-01T20:45:16.641Z,818.00
2023-03-01T20:46:16.745Z,814.00
2023-03-01T20:47:16.732Z,763.00
2023-03-01T20:48:16.741Z,619.00
2023-03-01T20:49:16.803Z,629.00
2023-03-01T20:50:16.865Z,621.00
2023-03-01T20:51:16.882Z,650.00
2023-03-01T20:52:16.995Z,655.00
2023-03-01T20:53:17.018Z,747.00
2023-03-01T20:54:17.003Z,655.00
2023-03-01T20:55:17.077Z,500.00
2023-03-01T20:56:17.044Z,503.00
2023-03-01T20:57:17.066Z,513.00
2023-03-01T20:58:17.112Z,502.00
2023-03-01T20:59:17.129Z,518.00
2023-03-01T21:00:17.150Z,520.00
2023-03-01T21:01:17.240Z,493.00
2023-03-01T21:02:17.217Z,491.00
2023-03-01T21:03:17.240Z,496.00
2023-03-01T21:04:17.365Z,448.00
2023-03-01T21:05:17.246Z,500.00
2023-03-01T21:06:17.302Z,419.00
2023-03-01T21:07:17.262Z,440.00
2023-03-01T21:08:17.302Z,508.00
2023-03-01T21:09:17.327Z,530.00
2023-03-01T21:10:17.438Z,561.00
2023-03-01T21:11:17.510Z,597.00
2023-03-01T21:12:17.443Z,655.00
2023-03-01T21:13:17.384Z,699.00
2023-03-01T21:14:17.428Z,774.00
2023-03-01T21:15:28.330Z,846.00
2023-03-01T21:16:18.534Z,851.00
2023-03-01T21:17:17.417Z,881.00
2023-03-01T21:18:17.424Z,842.00
2023-03-01T21:19:17.438Z,710.00
2023-03-01T21:20:17.402Z,833.00
2023-03-01T21:21:17.402Z,986.00
2023-03-01T21:22:17.420Z,1068.00
2023-03-01T21:23:17.379Z,1129.00
2023-03-01T21:24:17.464Z,1045.00
2023-03-01T21:25:17.414Z,1007.00
2023-03-01T21:26:17.398Z,986.00
2023-03-01T21:27:17.404Z,1041.00
2023-03-01T21:28:17.504Z,1105.00
2023-03-01T21:29:17.556Z,1187.00
2023-03-01T21:30:17.635Z,1255.00
2023-03-01T21:31:17.715Z,1372.00
2023-03-01T21:32:17.878Z,1467.00
2023-03-01T21:33:17.777Z,1586.00
2023-03-01T21:34:17.877Z,1789.00
2023-03-01T21:35:17.958Z,1742.00
2023-03-01T21:36:17.928Z,1539.00
2023-03-01T21:37:17.930Z,1599.00
2023-03-01T21:38:17.935Z,1787.00
2023-03-01T21:39:18.022Z,2056.00
2023-03-01T21:40:18.050Z,2253.00
2023-03-01T21:41:18.033Z,1352.00
2023-03-01T21:42:18.074Z,965.00
2023-03-01T21:43:18.112Z,941.00
2023-03-01T21:44:18.295Z,628.00
2023-03-01T21:45:18.179Z,607.00
2023-03-01T21:46:18.204Z,719.00
2023-03-01T21:47:18.284Z,857.00
2023-03-01T21:48:18.264Z,941.00
2023-03-01T21:49:18.318Z,986.00
2023-03-01T21:50:18.325Z,1135.00
2023-03-01T21:51:18.424Z,834.00
2023-03-01T21:52:18.438Z,1516.00
2023-03-01T21:53:18.470Z,1870.00
2023-03-01T21:54:18.532Z,2011.00
2023-03-01T21:55:18.613Z,2022.00
2023-03-01T21:56:18.677Z,1950.00
2023-03-01T21:57:18.639Z,1967.00
2023-03-01T21:58:18.668Z,1931.00
2023-03-01T21:59:18.766Z,2071.00
2023-03-01T22:00:18.770Z,1837.00
2023-03-01T22:01:18.919Z,1618.00
2023-03-01T22:02:18.858Z,1694.00
2023-03-01T22:03:18.918Z,1820.00
2023-03-01T22:04:18.915Z,1898.00
2023-03-01T22:05:18.979Z,1946.00
2023-03-01T22:06:30.011Z,1878.00
2023-03-01T22:07:20.033Z,1873.00
2023-03-01T22:08:18.998Z,1885.00
2023-03-01T22:09:19.048Z,1837.00
2023-03-01T22:10:18.992Z,1818.00
2023-03-01T22:11:19.009Z,1762.00
2023-03-01T22:12:18.975Z,1582.00
2023-03-01T22:14:39.015Z,500.00
2023-03-01T22:15:39.031Z,500.00
2023-03-01T22:16:38.859Z,500.00
2023-03-01T22:17:38.739Z,500.00
2023-03-01T22:18:38.813Z,500.00
2023-03-01T22:19:38.740Z,500.00
2023-03-01T22:20:38.764Z,517.00
2023-03-01T22:21:38.698Z,523.00
2023-03-01T22:23:59.146Z,500.00
2023-03-01T22:24:58.947Z,500.00
2023-03-01T22:25:59.150Z,500.00
2023-03-01T22:26:58.915Z,500.00
2023-03-01T22:27:58.875Z,500.00
2023-03-01T22:28:58.912Z,492.00
2023-03-01T22:29:58.841Z,526.00
2023-03-01T22:30:58.849Z,556.00
2023-03-01T22:31:58.959Z,573.00
2023-03-01T22:32:58.835Z,593.00
2023-03-01T22:33:58.830Z,603.00
2023-03-01T22:34:58.851Z,571.00
2023-03-01T22:35:58.889Z,553.00
2023-03-01T22:36:58.838Z,550.00
2023-03-01T22:37:58.809Z,467.00
2023-03-01T22:38:58.795Z,495.00
2023-03-01T22:39:58.753Z,509.00
2023-03-01T22:40:58.784Z,528.00
2023-03-01T22:41:58.764Z,562.00
2023-03-01T22:42:58.815Z,612.00
2023-03-01T22:43:58.787Z,660.00
2023-03-01T22:44:58.796Z,702.00
2023-03-01T22:45:58.770Z,731.00
2023-03-01T22:46:58.793Z,666.00
2023-03-01T22:47:58.734Z,666.00
2023-03-01T22:48:58.729Z,655.00
2023-03-01T22:49:58.732Z,653.00
2023-03-01T22:50:58.748Z,602.00
2023-03-01T22:52:00.371Z,519.00
2023-03-01T22:52:58.699Z,501.00
2023-03-01T22:53:58.766Z,501.00
2023-03-01T22:54:58.680Z,512.00
2023-03-01T22:55:58.709Z,501.00
2023-03-01T22:56:58.740Z,495.00
2023-03-01T22:57:58.818Z,415.00
2023-03-01T22:58:58.790Z,400.00
2023-03-01T22:59:58.825Z,447.00
2023-03-01T23:00:58.854Z,498.00
2023-03-01T23:01:58.892Z,486.00
2023-03-01T23:02:58.965Z,497.00
2023-03-01T23:03:58.982Z,500.00
2023-03-01T23:04:59.011Z,534.00
2023-03-01T23:05:59.006Z,547.00
2023-03-01T23:06:59.061Z,554.00
2023-03-01T23:07:59.034Z,608.00
2023-03-01T23:08:59.170Z,616.00
2023-03-01T23:09:59.152Z,650.00
2023-03-01T23:10:59.204Z,814.00
2023-03-01T23:11:59.257Z,1420.00
2023-03-01T23:13:59.394Z,2010.00
2023-03-01T23:39:16.948Z,2075.00
